createdAt,value
2022-08-08T00:02:03.979Z,37.84
2022-08-08T00:04:31.420Z,38.04
2022-08-08T00:07:16.167Z,37.98
2022-08-08T00:10:13.299Z,38.17
2022-08-08T00:12:56.340Z,38.17
2022-08-08T00:15:57.725Z,38.22
2022-08-08T00:18:25.078Z,38.30
2022-08-08T00:20:57.967Z,38.22
2022-08-08T00:23:28.329Z,38.44
2022-08-08T00:26:13.057Z,38.49
2022-08-08T00:28:47.286Z,38.41
2022-08-08T00:32:21.408Z,38.48
2022-08-08T00:34:51.401Z,38.62
2022-08-08T00:37:47.484Z,38.70
2022-08-08T00:41:09.729Z,38.46
2022-08-08T00:43:40.920Z,38.75
2022-08-08T00:46:25.783Z,38.92
2022-08-08T00:49:22.808Z,39.00
2022-08-08T00:51:55.599Z,38.96
2022-08-08T00:54:33.361Z,39.24
2022-08-08T00:57:48.718Z,39.22
2022-08-08T01:00:28.146Z,39.12
2022-08-08T01:03:58.499Z,39.07
2022-08-08T01:06:27.304Z,39.22
2022-08-08T01:09:35.417Z,39.40
2022-08-08T01:12:44.340Z,39.52
2022-08-08T01:15:43.979Z,39.76
2022-08-08T01:18:25.607Z,40.01
2022-08-08T01:21:35.138Z,39.94
2022-08-08T01:24:53.738Z,40.08
2022-08-08T01:27:47.079Z,40.01
2022-08-08T01:30:53.629Z,39.99
2022-08-08T01:34:01.064Z,40.08
2022-08-08T01:36:50.781Z,39.81
2022-08-08T01:39:41.975Z,39.98
2022-08-08T01:42:20.618Z,40.12
2022-08-08T01:45:50.379Z,40.31
2022-08-08T01:48:43.787Z,39.91
2022-08-08T01:52:42.642Z,39.93
2022-08-08T01:55:25.814Z,40.26
2022-08-08T01:58:12.545Z,40.50
2022-08-08T02:00:58.988Z,40.52
2022-08-08T02:03:49.340Z,40.87
2022-08-08T02:06:56.125Z,40.92
2022-08-08T02:10:03.511Z,40.87
2022-08-08T02:13:05.014Z,41.33
2022-08-08T02:15:45.545Z,41.51
2022-08-08T02:18:33.098Z,41.38
2022-08-08T02:21:29.697Z,41.60
2022-08-08T02:24:10.016Z,41.79
2022-08-08T02:26:57.948Z,41.69
2022-08-08T02:29:41.734Z,41.73
2022-08-08T02:32:30.139Z,41.97
2022-08-08T02:35:24.014Z,41.78
2022-08-08T02:38:25.256Z,42.14
2022-08-08T02:42:04.449Z,42.32
2022-08-08T02:44:56.709Z,42.76
2022-08-08T02:47:51.961Z,43.01
2022-08-08T02:50:24.625Z,42.79
2022-08-08T02:53:10.295Z,42.96
2022-08-08T02:56:15.489Z,43.04
2022-08-08T02:59:02.704Z,43.12
2022-08-08T03:02:20.084Z,43.19
2022-08-08T03:05:12.396Z,43.16
2022-08-08T03:07:59.291Z,43.40
2022-08-08T03:11:05.133Z,43.37
2022-08-08T03:16:00.414Z,43.59
2022-08-08T03:17:25.560Z,44.01
2022-08-08T03:20:10.395Z,43.94
2022-08-08T03:22:56.265Z,43.73
2022-08-08T03:25:35.779Z,43.95
2022-08-08T03:28:07.991Z,43.60
2022-08-08T03:30:35.367Z,43.74
2022-08-08T03:34:00.496Z,44.18
2022-08-08T03:36:10.504Z,44.08
2022-08-08T03:38:58.404Z,44.40
2022-08-08T03:42:12.190Z,44.60
2022-08-08T03:44:25.777Z,44.86
2022-08-08T03:46:53.124Z,44.58
2022-08-08T03:49:56.731Z,44.93
2022-08-08T03:52:13.048Z,44.43
2022-08-08T03:55:02.583Z,44.60
2022-08-08T03:58:33.347Z,44.81
2022-08-08T04:00:22.031Z,44.59
2022-08-08T04:03:04.392Z,44.78
2022-08-08T04:05:39.919Z,44.64
2022-08-08T04:08:33.346Z,44.41
2022-08-08T04:11:11.027Z,44.38
2022-08-08T04:14:03.943Z,43.75
2022-08-08T04:16:40.486Z,43.95
2022-08-08T04:19:23.454Z,43.49
2022-08-08T04:21:52.681Z,43.42
2022-08-08T04:24:28.491Z,42.91
2022-08-08T04:26:58.732Z,42.69
2022-08-08T04:29:26.876Z,42.38
2022-08-08T04:31:58.612Z,42.24
2022-08-08T04:34:32.338Z,42.92
2022-08-08T04:37:11.439Z,42.45
2022-08-08T04:40:03.440Z,42.79
2022-08-08T04:42:27.320Z,42.33
2022-08-08T04:44:57.322Z,41.92
2022-08-08T04:47:24.534Z,41.57
2022-08-08T04:50:00.939Z,41.56
2022-08-08T04:52:35.375Z,41.45
2022-08-08T04:55:04.398Z,40.80
2022-08-08T04:57:34.471Z,41.10
2022-08-08T05:00:02.297Z,40.95
2022-08-08T05:02:34.862Z,40.97
2022-08-08T05:05:02.436Z,40.93
2022-08-08T05:07:38.198Z,40.84
2022-08-08T05:10:12.322Z,41.05
2022-08-08T05:12:59.811Z,41.17
2022-08-08T05:16:48.401Z,41.19
2022-08-08T05:18:16.094Z,41.07
2022-08-08T05:20:49.817Z,41.68
2022-08-08T05:23:17.761Z,41.09
2022-08-08T05:25:44.597Z,40.39
2022-08-08T05:28:14.851Z,40.25
2022-08-08T05:30:47.026Z,40.21
2022-08-08T05:33:20.196Z,40.42
2022-08-08T05:35:54.094Z,40.35
2022-08-08T05:38:30.559Z,40.70
2022-08-08T05:41:06.126Z,41.06
2022-08-08T05:44:02.440Z,40.87
2022-08-08T05:46:25.518Z,40.79
2022-08-08T05:48:55.238Z,40.61
2022-08-08T05:51:22.689Z,40.41
2022-08-08T05:54:28.245Z,40.19
2022-08-08T05:56:48.361Z,40.58
2022-08-08T05:59:53.634Z,40.37
2022-08-08T06:02:40.917Z,39.94
2022-08-08T06:05:24.397Z,39.85
2022-08-08T06:08:10.495Z,39.83
2022-08-08T06:11:33.850Z,39.69
2022-08-08T06:14:29.341Z,39.42
2022-08-08T06:17:01.010Z,39.94
2022-08-08T06:19:35.275Z,39.57
2022-08-08T06:22:32.237Z,39.41
2022-08-08T06:24:51.281Z,39.11
2022-08-08T06:27:36.190Z,38.94
2022-08-08T06:30:11.772Z,38.96
2022-08-08T06:33:12.115Z,38.86
2022-08-08T06:36:06.095Z,38.71
2022-08-08T06:38:39.355Z,39.12
2022-08-08T06:41:13.465Z,39.38
2022-08-08T06:43:47.758Z,38.65
2022-08-08T06:46:24.299Z,38.07
2022-08-08T06:48:51.557Z,37.90
2022-08-08T06:51:21.140Z,38.14
2022-08-08T06:53:51.182Z,38.22
2022-08-08T06:56:24.223Z,38.25
2022-08-08T06:58:51.078Z,37.96
2022-08-08T07:02:17.322Z,37.69
2022-08-08T07:04:37.034Z,37.62
2022-08-08T07:07:10.570Z,37.36
2022-08-08T07:09:56.588Z,37.11
2022-08-08T07:12:47.574Z,36.90
2022-08-08T07:16:05.439Z,37.36
2022-08-08T07:18:37.114Z,37.06
2022-08-08T07:21:19.319Z,37.17
2022-08-08T07:24:13.453Z,36.64
2022-08-08T07:26:43.697Z,36.36
2022-08-08T07:29:54.642Z,36.41
2022-08-08T07:32:03.543Z,36.22
2022-08-08T07:35:51.362Z,36.22
2022-08-08T07:38:31.195Z,36.14
2022-08-08T07:41:23.645Z,36.00
2022-08-08T07:44:37.032Z,35.57
2022-08-08T07:47:06.124Z,35.40
2022-08-08T07:49:49.630Z,35.58
2022-08-08T07:52:35.162Z,35.44
2022-08-08T07:55:52.830Z,35.33
2022-08-08T07:58:34.340Z,35.39
2022-08-08T08:01:12.403Z,35.28
2022-08-08T08:04:13.740Z,35.49
2022-08-08T08:06:43.104Z,34.52
2022-08-08T08:09:26.587Z,34.97
2022-08-08T08:11:56.392Z,34.97
2022-08-08T08:14:45.815Z,34.66
2022-08-08T08:17:18.768Z,34.65
2022-08-08T08:26:27.356Z,34.37
2022-08-08T08:29:53.450Z,33.88
2022-08-08T08:32:35.721Z,33.97
2022-08-08T08:35:21.490Z,33.88
2022-08-08T08:41:17.769Z,33.89
2022-08-08T08:43:49.332Z,33.90
2022-08-08T08:46:18.925Z,33.73
2022-08-08T08:48:49.115Z,33.93
2022-08-08T08:51:17.864Z,33.85
2022-08-08T08:53:56.431Z,33.88
2022-08-08T08:56:28.495Z,33.48
2022-08-08T08:58:58.335Z,33.11
2022-08-08T09:01:33.165Z,33.27
2022-08-08T09:04:32.176Z,33.23
2022-08-08T09:07:12.875Z,32.67
2022-08-08T09:09:57.671Z,32.28
2022-08-08T09:12:28.521Z,32.79
2022-08-08T09:14:59.754Z,32.39
2022-08-08T09:18:22.164Z,32.24
2022-08-08T09:22:00.536Z,32.22
2022-08-08T09:23:43.887Z,32.49
2022-08-08T09:26:39.565Z,32.92
2022-08-08T09:32:50.274Z,31.92
2022-08-08T09:35:49.910Z,31.78
2022-08-08T09:38:54.915Z,31.96
2022-08-08T09:41:54.749Z,31.97
2022-08-08T09:44:49.427Z,31.48
2022-08-08T09:48:02.553Z,31.81
2022-08-08T09:50:13.967Z,31.95
2022-08-08T09:52:59.289Z,31.76
2022-08-08T09:56:07.042Z,31.93
2022-08-08T09:58:44.611Z,31.66
2022-08-08T10:01:14.610Z,31.61
2022-08-08T10:04:02.402Z,31.51
2022-08-08T10:06:32.253Z,31.18
2022-08-08T10:09:00.164Z,30.70
2022-08-08T10:12:27.102Z,31.04
2022-08-08T10:14:28.468Z,30.91
2022-08-08T10:18:05.826Z,30.65
2022-08-08T10:20:00.561Z,30.80
2022-08-08T10:22:29.643Z,30.77
2022-08-08T10:25:04.532Z,30.82
2022-08-08T10:27:41.746Z,30.70
2022-08-08T10:30:16.447Z,31.14
2022-08-08T10:33:00.314Z,30.82
2022-08-08T10:36:08.127Z,30.81
2022-08-08T10:38:19.694Z,30.91
2022-08-08T10:40:52.054Z,30.21
2022-08-08T10:43:22.933Z,30.45
2022-08-08T10:45:57.139Z,30.25
2022-08-08T10:48:38.719Z,30.37
2022-08-08T10:51:25.930Z,30.63
2022-08-08T10:53:56.776Z,30.40
2022-08-08T10:56:32.377Z,30.18
2022-08-08T10:59:08.200Z,30.30
2022-08-08T11:01:38.842Z,29.85
2022-08-08T11:04:10.508Z,29.67
2022-08-08T11:06:42.063Z,29.92
2022-08-08T11:09:19.436Z,29.34
2022-08-08T11:12:04.539Z,29.75
2022-08-08T11:14:35.528Z,29.49
2022-08-08T11:17:03.911Z,29.48
2022-08-08T11:19:33.973Z,29.78
2022-08-08T11:22:04.178Z,29.80
2022-08-08T11:24:36.051Z,29.50
2022-08-08T11:27:19.285Z,29.23
2022-08-08T11:30:04.450Z,29.60
2022-08-08T11:32:41.260Z,29.64
2022-08-08T11:35:25.945Z,29.56
2022-08-08T11:38:38.720Z,29.00
2022-08-08T11:40:52.543Z,29.11
2022-08-08T11:43:42.204Z,29.15
2022-08-08T11:46:14.247Z,29.81
2022-08-08T11:48:47.122Z,29.74
2022-08-08T11:51:29.525Z,30.33
2022-08-08T11:54:26.806Z,30.32
2022-08-08T11:56:56.415Z,29.89
2022-08-08T12:00:00.421Z,29.42
2022-08-08T12:02:33.418Z,29.47
2022-08-08T12:05:06.908Z,30.11
2022-08-08T12:07:51.147Z,29.92
2022-08-08T12:10:27.505Z,29.84
2022-08-08T12:13:05.825Z,29.27
2022-08-08T12:15:41.891Z,29.70
2022-08-08T12:18:16.099Z,29.67
2022-08-08T12:20:56.586Z,29.96
2022-08-08T12:23:40.307Z,29.13
2022-08-08T12:26:27.761Z,28.80
2022-08-08T12:29:04.648Z,29.09
2022-08-08T12:31:39.089Z,28.79
2022-08-08T12:34:36.680Z,29.12
2022-08-08T12:37:08.538Z,29.38
2022-08-08T12:39:58.177Z,29.63
2022-08-08T12:42:26.462Z,29.41
2022-08-08T12:45:59.937Z,29.21
2022-08-08T12:48:36.606Z,28.89
2022-08-08T12:51:11.250Z,28.89
2022-08-08T12:53:58.633Z,29.03
2022-08-08T12:56:37.410Z,28.70
2022-08-08T12:59:16.548Z,29.12
2022-08-08T13:01:55.026Z,29.05
2022-08-08T13:04:26.566Z,28.90
2022-08-08T13:06:56.086Z,29.04
2022-08-08T13:09:43.165Z,29.07
2022-08-08T13:12:35.779Z,29.11
2022-08-08T13:15:09.276Z,29.30
2022-08-08T13:18:08.298Z,28.82
2022-08-08T13:20:27.509Z,28.60
2022-08-08T13:23:29.968Z,29.05
2022-08-08T13:25:48.894Z,29.06
2022-08-08T13:28:32.251Z,28.39
2022-08-08T13:31:04.127Z,28.75
2022-08-08T13:33:42.828Z,28.99
2022-08-08T13:36:17.170Z,28.52
2022-08-08T13:38:45.311Z,28.63
2022-08-08T13:41:16.445Z,28.48
2022-08-08T13:43:49.916Z,28.28
2022-08-08T13:46:26.563Z,28.51
2022-08-08T13:50:33.200Z,29.26
2022-08-08T13:52:02.881Z,29.95
2022-08-08T13:54:44.139Z,30.24
2022-08-08T13:57:16.036Z,30.54
2022-08-08T13:59:49.041Z,30.97
2022-08-08T14:02:32.854Z,30.87
2022-08-08T14:05:20.483Z,30.61
2022-08-08T14:08:06.464Z,30.95
2022-08-08T14:10:45.831Z,31.43
2022-08-08T14:20:15.609Z,32.32
2022-08-08T14:26:40.752Z,34.35
2022-08-08T14:29:30.798Z,34.13
2022-08-08T14:32:11.868Z,35.14
2022-08-08T14:35:04.770Z,35.45
2022-08-08T14:37:59.597Z,38.22
2022-08-08T14:40:50.383Z,39.76
2022-08-08T14:44:01.821Z,42.77
2022-08-08T14:46:44.799Z,45.92
2022-08-08T14:50:02.522Z,47.85
2022-08-08T14:53:16.994Z,46.70
2022-08-08T14:56:02.147Z,45.10
2022-08-08T14:58:50.752Z,43.95
2022-08-08T15:01:24.485Z,43.90
2022-08-08T15:05:08.307Z,45.63
2022-08-08T15:07:53.856Z,47.05
2022-08-08T15:10:46.765Z,47.38
2022-08-08T15:13:40.136Z,47.76
2022-08-08T15:16:48.746Z,46.53
2022-08-08T15:19:42.790Z,46.17
2022-08-08T15:22:38.030Z,45.13
2022-08-08T15:25:29.114Z,44.19
2022-08-08T15:28:33.891Z,43.10
2022-08-08T15:32:02.860Z,42.63
2022-08-08T15:46:14.012Z,55.37
2022-08-08T15:59:18.939Z,57.40
2022-08-08T16:02:13.154Z,57.86
2022-08-08T16:05:00.773Z,57.91
2022-08-08T16:13:09.378Z,56.17
2022-08-08T16:14:39.752Z,55.57
2022-08-08T16:18:06.556Z,54.11
2022-08-08T16:33:04.815Z,56.16
2022-08-08T16:36:01.005Z,56.32
2022-08-08T16:42:22.830Z,58.01
2022-08-08T16:49:38.464Z,59.17
2022-08-08T16:56:32.844Z,59.40
2022-08-08T17:19:57.789Z,55.37
2022-08-08T17:22:57.272Z,55.70
2022-08-08T17:25:53.718Z,55.24
2022-08-08T17:28:49.494Z,55.34
2022-08-08T17:31:46.222Z,55.49
2022-08-08T17:35:52.157Z,55.45
2022-08-08T17:37:54.917Z,55.47
2022-08-08T17:40:42.788Z,55.69
2022-08-08T17:43:28.226Z,55.41
2022-08-08T17:46:42.781Z,55.21
2022-08-08T17:49:28.574Z,55.11
2022-08-08T17:52:37.454Z,55.15
2022-08-08T17:56:06.887Z,55.14
2022-08-08T17:58:19.851Z,55.17
2022-08-08T18:01:46.620Z,55.63
2022-08-08T18:04:49.386Z,55.44
2022-08-08T18:08:01.790Z,54.95
2022-08-08T18:10:48.838Z,54.70
2022-08-08T18:13:48.745Z,54.47
2022-08-08T18:20:44.234Z,53.15
2022-08-08T18:23:55.742Z,52.94
2022-08-08T18:26:54.613Z,52.12
2022-08-08T18:33:02.470Z,51.89
2022-08-08T18:39:16.424Z,52.40
2022-08-08T18:42:15.897Z,51.45
2022-08-08T18:45:44.974Z,51.36
2022-08-08T18:51:48.838Z,51.11
2022-08-08T18:54:29.956Z,51.17
2022-08-08T18:57:16.878Z,50.82
2022-08-08T19:00:15.826Z,50.89
2022-08-08T19:03:15.891Z,51.10
2022-08-08T19:06:09.798Z,51.23
2022-08-08T19:08:57.924Z,50.69
2022-08-08T19:11:46.351Z,50.12
2022-08-08T19:14:42.827Z,49.62
2022-08-08T19:17:48.192Z,49.09
2022-08-08T19:20:39.224Z,49.07
2022-08-08T19:23:26.984Z,48.71
2022-08-08T19:26:28.768Z,48.37
2022-08-08T19:29:11.966Z,49.15
2022-08-08T19:31:53.854Z,49.18
2022-08-08T19:34:45.773Z,49.56
2022-08-08T19:37:43.148Z,49.92
2022-08-08T19:40:32.732Z,50.58
2022-08-08T19:43:11.815Z,50.03
2022-08-08T19:46:05.696Z,50.08
2022-08-08T19:48:59.890Z,50.26
2022-08-08T19:51:53.982Z,50.97
2022-08-08T19:54:43.114Z,51.04
2022-08-08T19:57:21.581Z,51.31
2022-08-08T20:00:11.244Z,52.36
2022-08-08T20:04:01.566Z,52.51
2022-08-08T20:06:18.120Z,52.70
2022-08-08T20:09:08.609Z,53.09
2022-08-08T20:11:52.814Z,54.18
2022-08-08T20:15:00.227Z,54.81
2022-08-08T20:17:40.822Z,54.92
2022-08-08T20:20:37.654Z,55.03
2022-08-08T20:23:46.174Z,56.54
2022-08-08T20:26:34.308Z,57.35
2022-08-08T20:29:11.202Z,57.14
2022-08-08T20:32:08.201Z,57.81
2022-08-08T20:35:02.136Z,57.78
2022-08-08T20:37:54.820Z,58.04
2022-08-08T20:40:38.684Z,58.09
2022-08-08T20:43:44.290Z,58.12
2022-08-08T20:46:21.151Z,58.72
2022-08-08T20:49:13.740Z,59.20
2022-08-08T20:51:50.836Z,58.93
2022-08-08T20:54:44.312Z,58.45
2022-08-08T20:57:26.924Z,58.51
2022-08-08T21:00:21.728Z,58.16
2022-08-08T21:03:17.355Z,57.88
2022-08-08T21:05:59.152Z,57.88
2022-08-08T21:08:49.570Z,58.01
2022-08-08T21:11:50.761Z,58.55
2022-08-08T21:14:50.774Z,58.85
2022-08-08T21:21:06.355Z,59.01
2022-08-08T21:27:15.227Z,57.86
2022-08-08T21:30:21.999Z,57.44
2022-08-08T21:32:56.871Z,57.55
2022-08-08T21:36:18.357Z,57.40
2022-08-08T21:38:36.808Z,57.12
2022-08-08T21:41:38.457Z,57.16
2022-08-08T21:44:23.084Z,57.22
2022-08-08T21:48:06.767Z,57.26
2022-08-08T21:50:35.058Z,57.43
2022-08-08T21:54:27.407Z,57.56
2022-08-08T21:56:31.054Z,57.67
2022-08-08T21:59:22.923Z,57.78
2022-08-08T22:02:04.156Z,57.86
2022-08-08T22:05:10.999Z,57.77
2022-08-08T22:07:49.887Z,57.59
2022-08-08T22:10:42.004Z,57.19
2022-08-08T22:13:43.399Z,56.98
2022-08-08T22:16:38.824Z,56.81
2022-08-08T22:19:23.615Z,56.59
2022-08-08T22:22:17.711Z,56.52
2022-08-08T22:25:04.749Z,56.80
2022-08-08T22:28:04.167Z,56.60
2022-08-08T22:31:03.791Z,57.28
2022-08-08T22:37:00.725Z,57.77
2022-08-08T22:40:00.461Z,58.89
2022-08-08T22:42:35.387Z,59.71
2022-08-08T22:45:21.764Z,59.90
2022-08-08T22:48:15.977Z,60.48
2022-08-08T22:51:09.699Z,60.33
2022-08-08T22:54:30.992Z,60.71
2022-08-08T22:57:11.552Z,61.90
2022-08-08T22:59:59.589Z,63.00
2022-08-08T23:02:53.761Z,62.45
2022-08-08T23:05:49.626Z,62.49
2022-08-08T23:08:23.862Z,62.58
2022-08-08T23:11:13.232Z,62.47
2022-08-08T23:13:53.847Z,61.99
2022-08-08T23:16:57.955Z,62.70
2022-08-08T23:19:36.049Z,62.29
2022-08-08T23:22:25.785Z,62.32
2022-08-08T23:24:59.836Z,61.93
2022-08-08T23:27:46.812Z,62.28
2022-08-08T23:30:22.134Z,62.29
2022-08-08T23:33:01.797Z,62.21
2022-08-08T23:36:06.755Z,62.77
2022-08-08T23:38:44.636Z,62.74
2022-08-08T23:41:46.238Z,62.68
2022-08-08T23:44:21.145Z,63.31
2022-08-08T23:49:04.180Z,63.08
2022-08-08T23:50:36.694Z,62.80
2022-08-08T23:54:06.136Z,62.79
2022-08-08T23:56:31.854Z,62.42
2022-08-08T23:59:16.854Z,61.97
